Time;durP1;ratioP1;P1;durP2;ratioP2;P2;SDS_P1;SDS_P2;PMS_P1;PMS_P2;Temp;Humidity;BMP_temperature;BMP_pressure;BME280_temperature;BME280_humidity;BME280_pressure;Samples;Min_cycle;Max_cycle;Signal;HPM_P1;HPM_P2
2022/01/22 00:00:33;;;;;;;21.87;2.87;;;6.80;99.90;;;;;;6165777;23;20020;-91
2022/01/22 00:15:49;;;;;;;12.25;1.58;;;6.80;99.90;;;;;;6186696;23;20513;-90
2022/01/22 00:18:15;;;;;;;14.50;1.95;;;6.80;99.90;;;;;;6161106;23;20024;-92
2022/01/22 00:25:52;;;;;;;12.20;1.90;;;6.80;99.90;;;;;;6186800;23;20025;-89
2022/01/22 00:28:18;;;;;;;19.92;2.70;;;6.80;99.90;;;;;;6160285;23;20025;-90
2022/01/22 00:30:45;;;;;;;14.80;1.90;;;6.80;99.90;;;;;;6160470;23;20438;-91
2022/01/22 00:33:25;;;;;;;19.40;2.58;;;6.80;99.90;;;;;;6160821;23;20013;-91
2022/01/22 00:35:57;;;;;;;18.45;2.03;;;6.80;99.90;;;;;;6160541;23;20017;-89
2022/01/22 00:38:23;;;;;;;14.50;2.03;;;6.80;99.90;;;;;;6160446;23;20320;-88
2022/01/22 00:40:51;;;;;;;18.07;1.90;;;6.80;99.90;;;;;;6160692;23;20013;-90
2022/01/22 00:43:18;;;;;;;15.85;2.63;;;6.80;99.90;;;;;;6160578;23;20057;-88
2022/01/22 00:45:44;;;;;;;;;;;6.80;99.90;;;;;;6160422;23;20009;-87
2022/01/22 00:48:09;;;;;;;15.38;2.30;;;6.80;99.90;;;;;;6185100;23;19994;-88
2022/01/22 00:50:35;;;;;;;13.97;1.90;;;6.80;99.90;;;;;;6160717;23;20024;-90
2022/01/22 00:53:01;;;;;;;17.93;1.97;;;6.80;99.90;;;;;;6160047;23;20013;-87
2022/01/22 00:55:27;;;;;;;21.87;2.53;;;6.80;99.90;;;;;;6160111;23;20032;-87
2022/01/22 00:57:52;;;;;;;14.57;1.90;;;6.80;99.90;;;;;;6135716;23;20465;-89
2022/01/22 01:00:18;;;;;;;23.77;2.87;;;6.80;99.90;;;;;;6160674;23;20017;-90
2022/01/22 01:02:45;;;;;;;12.57;2.17;;;6.80;99.90;;;;;;6135754;23;20055;-88
2022/01/22 01:05:11;;;;;;;;;;;6.70;99.90;;;;;;6185381;23;20071;-89
2022/01/22 01:07:38;;;;;;;11.77;1.90;;;6.70;99.90;;;;;;6159777;23;20357;-88
2022/01/22 01:10:06;;;;;;;20.67;1.92;;;6.70;99.90;;;;;;6160240;23;20024;-88
2022/01/22 01:12:32;;;;;;;13.18;2.05;;;6.70;99.90;;;;;;6159687;23;20020;-87
2022/01/22 01:15:17;;;;;;;19.17;1.98;;;6.80;99.90;;;;;;6160277;23;20013;-87
2022/01/22 01:33:59;;;;;;;10.30;1.58;;;6.80;99.90;;;;;;6159196;23;20419;-87
2022/01/22 01:36:25;;;;;;;17.70;1.85;;;6.70;99.90;;;;;;6159141;23;20412;-89
2022/01/22 01:38:56;;;;;;;15.13;2.23;;;6.70;99.90;;;;;;6159083;23;20021;-88
2022/01/22 01:41:35;;;;;;;13.77;2.00;;;6.70;99.90;;;;;;6134760;23;20021;-89
2022/01/22 01:44:00;;;;;;;20.15;2.72;;;6.70;99.90;;;;;;6159716;23;20035;-89
2022/01/22 01:46:48;;;;;;;15.20;1.93;;;6.70;99.90;;;;;;6159629;23;20108;-88
2022/01/22 01:49:15;;;;;;;15.68;1.70;;;6.70;99.90;;;;;;6134774;23;20020;-86
2022/01/22 01:51:42;;;;;;;;;;;6.70;99.90;;;;;;6184137;23;20354;-90
2022/01/22 01:59:38;;;;;;;15.13;2.15;;;6.60;99.90;;;;;;6159268;23;20466;-88
2022/01/22 02:04:41;;;;;;;16.83;2.17;;;6.60;99.90;;;;;;6160001;23;20076;-86
2022/01/22 02:07:07;;;;;;;10.73;1.58;;;6.60;99.90;;;;;;6129464;23;20056;-86
2022/01/22 02:09:34;;;;;;;15.20;2.35;;;6.60;99.90;;;;;;6129614;23;20032;-87
2022/01/22 02:12:09;;;;;;;14.50;1.90;;;6.60;99.90;;;;;;6104885;23;20025;-87
2022/01/22 02:25:35;;;;;;;12.60;1.83;;;6.60;99.90;;;;;;6131799;23;20025;-88
2022/01/22 02:28:03;;;;;;;14.30;2.30;;;6.60;99.90;;;;;;6131423;23;20033;-88
2022/01/22 02:30:32;;;;;;;14.75;2.08;;;6.60;99.90;;;;;;6131427;23;20025;-87
2022/01/22 02:35:56;;;;;;;14.88;1.80;;;6.60;99.90;;;;;;6131428;23;20024;-88
2022/01/22 02:38:32;;;;;;;14.05;2.45;;;6.60;99.90;;;;;;6131484;23;20095;-87
2022/01/22 02:40:58;;;;;;;12.77;1.60;;;6.60;99.90;;;;;;6131627;23;20387;-87
2022/01/22 02:43:24;;;;;;;15.20;1.83;;;6.60;99.90;;;;;;6131692;23;20021;-87
2022/01/22 02:45:53;;;;;;;10.70;1.30;;;6.60;99.90;;;;;;6107277;23;20021;-87
2022/01/22 02:48:19;;;;;;;11.00;1.52;;;6.60;99.90;;;;;;6131467;23;20013;-87
2022/01/22 02:50:44;;;;;;;16.63;1.33;;;6.60;99.90;;;;;;6131598;23;20009;-87
2022/01/22 02:53:12;;;;;;;12.13;1.10;;;6.60;99.90;;;;;;6131169;23;20014;-87
2022/01/22 02:55:40;;;;;;;11.57;1.23;;;6.60;99.90;;;;;;6131302;23;20021;-87
2022/01/22 02:58:06;;;;;;;13.85;1.30;;;6.60;99.90;;;;;;6130947;23;20017;-87
2022/01/22 03:00:33;;;;;;;11.13;1.53;;;6.60;99.90;;;;;;6130414;23;20025;-87
2022/01/22 03:02:59;;;;;;;11.65;1.15;;;6.60;99.90;;;;;;6130558;23;20045;-87
2022/01/22 03:05:25;;;;;;;11.98;1.50;;;6.60;99.90;;;;;;6119417;23;20457;-87
2022/01/22 03:07:54;;;;;;;11.43;2.00;;;6.60;99.90;;;;;;6130947;23;20013;-86
2022/01/22 03:10:23;;;;;;;14.65;1.33;;;6.60;99.90;;;;;;6128558;23;20025;-87
2022/01/22 03:15:38;;;;;;;15.82;1.50;;;6.60;99.90;;;;;;6157223;23;20131;-87
2022/01/22 03:23:08;;;;;;;13.55;1.15;;;6.60;99.90;;;;;;6130972;23;20022;-88
2022/01/22 03:28:22;;;;;;;10.07;1.30;;;6.60;99.90;;;;;;6130834;23;20371;-88
2022/01/22 03:30:48;;;;;;;9.77;1.33;;;6.60;99.90;;;;;;6130035;23;20018;-87
2022/01/22 03:33:18;;;;;;;9.33;1.37;;;6.60;99.90;;;;;;6130825;23;20024;-87
2022/01/22 03:35:50;;;;;;;10.35;1.60;;;6.60;99.90;;;;;;6106318;23;20343;-87
2022/01/22 03:38:15;;;;;;;14.60;1.60;;;6.60;99.90;;;;;;6130564;23;20013;-87
2022/01/22 03:40:41;;;;;;;13.47;1.70;;;6.60;99.90;;;;;;6130876;23;20028;-87
2022/01/22 03:43:07;;;;;;;12.80;1.77;;;6.60;99.90;;;;;;6131005;23;20084;-87
2022/01/22 03:45:32;;;;;;;9.27;1.10;;;6.60;99.90;;;;;;6130943;23;20022;-87
2022/01/22 03:47:58;;;;;;;14.87;1.50;;;6.60;99.90;;;;;;6131091;23;20017;-87
2022/01/22 03:50:24;;;;;;;11.70;1.40;;;6.60;99.90;;;;;;6131143;23;20071;-87
2022/01/22 03:52:50;;;;;;;10.27;1.15;;;6.60;99.90;;;;;;6131048;23;20018;-87
2022/01/22 03:56:02;;;;;;;11.43;1.30;;;6.60;99.90;;;;;;6131107;23;20100;-88
2022/01/22 03:58:08;;;;;;;13.90;1.50;;;6.60;99.90;;;;;;6127696;23;20026;-87
2022/01/22 04:00:34;;;;;;;11.30;1.07;;;6.60;99.90;;;;;;6130172;23;20024;-89
2022/01/22 04:03:38;;;;;;;9.60;1.48;;;6.60;99.90;;;;;;6130551;23;20088;-88
2022/01/22 04:06:22;;;;;;;10.10;1.20;;;6.60;99.90;;;;;;6127730;23;20056;-88
2022/01/22 04:08:44;;;;;;;11.63;1.45;;;6.60;99.90;;;;;;6130772;23;20021;-88
2022/01/22 04:11:14;;;;;;;8.90;1.25;;;6.50;99.90;;;;;;6130293;23;20025;-87
2022/01/22 04:13:40;;;;;;;9.30;1.45;;;6.50;99.90;;;;;;6130695;23;20074;-88
2022/01/22 04:16:07;;;;;;;15.37;1.40;;;6.50;99.90;;;;;;6130689;23;20013;-88
2022/01/22 04:27:10;;;;;;;6.30;0.90;;;6.40;99.90;;;;;;6130707;23;20017;-88
2022/01/22 04:29:36;;;;;;;6.68;1.02;;;6.40;99.90;;;;;;6130236;23;20018;-88
2022/01/22 04:32:02;;;;;;;12.67;1.20;;;6.40;99.90;;;;;;6105217;23;20025;-88
2022/01/22 04:34:27;;;;;;;10.40;1.20;;;6.40;99.90;;;;;;6130697;23;20026;-88
2022/01/22 04:36:53;;;;;;;12.83;1.30;;;6.40;99.90;;;;;;6106250;23;20571;-87
2022/01/22 04:39:21;;;;;;;10.93;1.30;;;6.40;99.90;;;;;;6130423;23;20144;-88
2022/01/22 04:41:47;;;;;;;15.82;1.55;;;6.40;99.90;;;;;;6129439;23;20020;-88
2022/01/22 04:44:13;;;;;;;15.73;1.87;;;6.40;99.90;;;;;;6130424;23;20017;-88
2022/01/22 04:52:34;;;;;;;14.32;2.03;;;6.40;99.90;;;;;;6130464;23;20455;-88
2022/01/22 04:55:01;;;;;;;10.30;1.70;;;6.50;99.90;;;;;;6130365;23;20025;-88
2022/01/22 04:57:36;;;;;;;10.82;1.60;;;6.50;99.90;;;;;;6129754;23;20028;-88
2022/01/22 05:00:10;;;;;;;10.63;1.42;;;6.50;99.90;;;;;;6130144;23;20025;-87
2022/01/22 05:02:35;;;;;;;11.63;1.55;;;6.50;99.90;;;;;;6130161;23;20045;-87
2022/01/22 05:05:03;;;;;;;11.43;1.40;;;6.50;99.90;;;;;;6130086;23;20033;-88
2022/01/22 05:07:28;;;;;;;13.95;1.50;;;6.50;99.90;;;;;;6130032;23;20079;-88
2022/01/22 05:09:54;;;;;;;10.60;1.70;;;6.50;99.90;;;;;;6130152;23;20428;-87
2022/01/22 05:12:19;;;;;;;13.97;1.80;;;6.50;99.90;;;;;;6130335;23;20021;-87
2022/01/22 05:14:45;;;;;;;8.10;0.90;;;6.50;99.90;;;;;;6130058;23;20018;-87
2022/01/22 05:17:12;;;;;;;10.33;1.23;;;6.50;99.90;;;;;;6156061;23;20092;-87
2022/01/22 05:19:50;;;;;;;9.73;1.55;;;6.50;99.90;;;;;;6130194;23;20026;-88
2022/01/22 05:22:31;;;;;;;14.30;1.63;;;6.50;99.90;;;;;;6130094;23;20060;-88
2022/01/22 05:25:01;;;;;;;10.98;1.50;;;6.50;99.90;;;;;;6128832;23;20021;-87
2022/01/22 05:27:51;;;;;;;9.43;1.27;;;6.50;99.90;;;;;;6105199;23;20059;-87
2022/01/22 05:38:39;;;;;;;15.52;2.28;;;6.50;99.90;;;;;;6129607;23;20083;-87
2022/01/22 05:41:05;;;;;;;12.87;2.70;;;6.50;99.90;;;;;;6129945;23;20092;-87
2022/01/22 05:43:30;;;;;;;14.75;2.10;;;6.50;99.90;;;;;;6129520;23;20029;-87
2022/01/22 05:45:56;;;;;;;10.50;1.77;;;6.50;99.90;;;;;;6105548;23;20018;-88
2022/01/22 05:48:22;;;;;;;11.40;1.43;;;6.50;99.90;;;;;;6156075;23;20016;-87
2022/01/22 05:50:58;;;;;;;10.83;1.13;;;6.50;99.90;;;;;;6105588;23;20519;-88
2022/01/22 06:01:12;;;;;;;11.57;1.60;;;6.50;99.90;;;;;;6129893;23;20021;-87
2022/01/22 06:03:39;;;;;;;12.02;1.40;;;6.50;99.90;;;;;;6129494;23;20053;-88
2022/01/22 06:06:04;;;;;;;10.20;1.40;;;6.50;99.90;;;;;;6129829;23;20022;-88
2022/01/22 06:08:33;;;;;;;18.97;2.47;;;6.50;99.90;;;;;;6129623;23;20469;-88
2022/01/22 06:11:07;;;;;;;13.07;2.30;;;6.50;99.90;;;;;;6129776;23;20093;-88
2022/01/22 06:13:46;;;;;;;19.73;2.15;;;6.60;99.90;;;;;;6105352;23;20045;-87
2022/01/22 06:16:14;;;;;;;14.35;2.33;;;6.60;99.90;;;;;;6129850;23;20028;-88
2022/01/22 06:18:40;;;;;;;13.57;2.10;;;6.60;99.90;;;;;;6129564;23;20061;-87
2022/01/22 06:21:08;;;;;;;15.57;1.90;;;6.60;99.90;;;;;;6105390;23;20443;-86
2022/01/22 06:23:35;;;;;;;12.70;1.70;;;6.60;99.90;;;;;;6129671;23;20081;-88
2022/01/22 06:26:02;;;;;;;15.52;2.00;;;6.60;99.90;;;;;;6127402;23;20065;-87
2022/01/22 06:28:28;;;;;;;12.05;1.60;;;6.60;99.90;;;;;;6126924;23;20045;-87
2022/01/22 06:30:54;;;;;;;13.73;1.42;;;6.60;99.90;;;;;;6102752;23;20403;-88
2022/01/22 06:33:20;;;;;;;13.50;1.52;;;6.60;99.90;;;;;;6127657;23;20013;-87
2022/01/22 06:35:46;;;;;;;12.07;1.20;;;6.50;99.90;;;;;;6127701;23;20036;-86
2022/01/22 06:38:12;;;;;;;8.97;0.93;;;6.60;99.90;;;;;;6153698;23;20018;-86
2022/01/22 06:43:04;;;;;;;8.33;1.17;;;6.50;99.90;;;;;;6129484;23;20022;-87
2022/01/22 06:45:30;;;;;;;10.25;1.27;;;6.50;99.90;;;;;;6103130;23;20017;-85
2022/01/22 06:47:56;;;;;;;10.23;1.10;;;6.50;99.90;;;;;;6127061;23;20176;-86
2022/01/22 06:50:30;;;;;;;9.97;1.17;;;6.50;99.90;;;;;;6127050;23;20129;-84
2022/01/22 06:52:57;;;;;;;9.98;1.30;;;6.50;99.90;;;;;;6126835;23;20371;-84
2022/01/22 06:55:47;;;;;;;10.30;1.40;;;6.50;99.90;;;;;;6177218;23;20465;-86
2022/01/22 06:58:14;;;;;;;9.57;1.17;;;6.40;99.90;;;;;;6128016;23;20089;-87
2022/01/22 07:00:39;;;;;;;8.65;1.02;;;6.40;99.90;;;;;;6128514;23;20088;-87
2022/01/22 07:03:05;;;;;;;7.50;1.07;;;6.40;99.90;;;;;;6129367;23;20387;-86
2022/01/22 07:14:32;;;;;;;6.88;1.17;;;6.30;99.90;;;;;;6160208;23;20025;-96
2022/01/22 07:21:07;;;;;;;;;;;;;;;;;;;;;
2022/01/22 07:34:37;;;;;;;;;;;;;;;;;;;;;
2022/01/22 07:37:11;;;;;;;9.52;2.15;;;6.30;99.90;;;;;;6131944;23;20017;-91
2022/01/22 07:39:42;;;;;;;10.07;1.40;;;6.30;99.90;;;;;;6130473;23;20089;-87
2022/01/22 07:42:08;;;;;;;9.80;1.38;;;6.30;99.90;;;;;;6130544;23;20021;-86
2022/01/22 07:44:34;;;;;;;5.50;1.40;;;6.30;99.90;;;;;;6130916;23;20458;-87
2022/01/22 07:47:03;;;;;;;7.80;1.40;;;6.30;99.90;;;;;;6130408;23;20390;-86
2022/01/22 07:49:29;;;;;;;8.75;0.90;;;6.30;99.90;;;;;;6130133;23;20021;-84
2022/01/22 07:51:58;;;;;;;7.60;1.20;;;6.30;99.90;;;;;;6130240;23;20027;-87
2022/01/22 07:54:24;;;;;;;8.52;1.42;;;6.30;99.90;;;;;;6131054;23;20013;-86
2022/01/22 07:56:50;;;;;;;5.80;1.00;;;6.30;99.90;;;;;;6130688;23;20029;-86
2022/01/22 07:59:16;;;;;;;10.83;0.93;;;6.30;99.90;;;;;;6156447;23;20021;-87
2022/01/22 08:01:41;;;;;;;12.20;2.00;;;6.20;99.90;;;;;;6129946;23;20352;-86
2022/01/22 08:04:10;;;;;;;9.93;0.97;;;6.30;99.90;;;;;;6156398;23;20033;-86
2022/01/22 08:06:36;;;;;;;12.55;1.38;;;6.30;99.90;;;;;;6130354;23;20025;-86
2022/01/22 08:09:02;;;;;;;11.70;1.63;;;6.30;99.90;;;;;;6130402;23;20395;-87
2022/01/22 08:11:28;;;;;;;15.02;1.20;;;6.30;99.90;;;;;;6130291;23;20064;-85
2022/01/22 08:13:54;;;;;;;8.03;1.20;;;6.30;99.90;;;;;;6156675;23;20018;-84
2022/01/22 08:16:20;;;;;;;6.40;0.97;;;6.30;99.90;;;;;;6129830;23;20514;-84
2022/01/22 08:18:45;;;;;;;7.17;1.50;;;6.30;99.90;;;;;;6156641;23;20037;-85
2022/01/22 08:21:11;;;;;;;9.63;2.03;;;6.30;99.90;;;;;;6129176;23;20022;-85
2022/01/22 08:23:37;;;;;;;7.67;1.30;;;6.30;99.90;;;;;;6130193;23;20443;-84
2022/01/22 08:26:07;;;;;;;10.20;1.63;;;6.30;99.90;;;;;;6130529;23;20052;-86
2022/01/22 08:36:33;;;;;;;8.65;1.35;;;6.30;99.90;;;;;;6156432;23;20084;-86
2022/01/22 08:38:58;;;;;;;8.00;1.33;;;6.30;99.90;;;;;;6128907;23;20375;-84
2022/01/22 08:41:24;;;;;;;8.30;1.63;;;6.40;99.90;;;;;;6128697;23;20519;-85
2022/01/22 08:43:50;;;;;;;7.67;1.37;;;6.40;99.90;;;;;;6156143;23;20108;-85
2022/01/22 08:46:16;;;;;;;8.47;1.33;;;6.40;99.90;;;;;;6105632;23;20013;-85
2022/01/22 08:48:41;;;;;;;3.37;0.70;;;6.40;99.90;;;;;;6129991;23;20022;-84
2022/01/22 08:51:09;;;;;;;5.60;0.60;;;6.40;99.90;;;;;;6155204;23;20624;-86
2022/01/22 08:53:35;;;;;;;2.75;0.55;;;6.40;99.90;;;;;;6129530;23;20044;-85
2022/01/22 08:56:02;;;;;;;3.27;0.53;;;6.40;99.90;;;;;;6130120;23;20021;-86
2022/01/22 08:58:28;;;;;;;5.57;0.70;;;6.40;99.90;;;;;;6129754;23;20490;-85
2022/01/22 09:00:53;;;;;;;5.53;0.70;;;6.40;99.90;;;;;;6130179;23;20022;-85
2022/01/22 09:03:20;;;;;;;10.33;1.17;;;6.40;99.90;;;;;;6156077;23;20025;-86
2022/01/22 09:05:47;;;;;;;;;;;6.40;99.90;;;;;;6130561;23;20306;-84
2022/01/22 09:08:15;;;;;;;4.70;0.65;;;6.40;99.90;;;;;;6129987;23;20231;-84
2022/01/22 09:10:42;;;;;;;4.85;0.55;;;6.40;99.90;;;;;;6156122;23;20459;-86
2022/01/22 09:13:08;;;;;;;10.00;0.80;;;6.40;99.90;;;;;;6129835;23;20394;-85
2022/01/22 09:15:34;;;;;;;4.13;0.88;;;6.40;99.90;;;;;;6129835;23;20018;-85
2022/01/22 09:18:00;;;;;;;3.37;0.60;;;6.40;99.90;;;;;;6129380;23;20020;-86
2022/01/22 09:20:45;;;;;;;5.20;0.50;;;6.40;99.90;;;;;;6153969;23;20022;-85
2022/01/22 09:23:11;;;;;;;6.43;0.50;;;6.50;99.90;;;;;;6129754;23;20447;-85
2022/01/22 09:25:37;;;;;;;8.85;0.93;;;6.50;99.90;;;;;;6129573;23;20440;-85
2022/01/22 09:28:04;;;;;;;5.50;0.73;;;6.50;99.90;;;;;;6129038;23;20080;-83
2022/01/22 09:30:30;;;;;;;5.40;0.60;;;6.50;99.90;;;;;;6155838;23;20017;-85
2022/01/22 09:32:56;;;;;;;5.07;0.73;;;6.50;99.90;;;;;;6129447;23;20506;-85
2022/01/22 09:35:22;;;;;;;5.15;0.60;;;6.50;99.90;;;;;;6155168;23;20028;-87
2022/01/22 09:37:48;;;;;;;7.87;0.80;;;6.50;99.90;;;;;;6104931;23;20017;-85
2022/01/22 09:40:13;;;;;;;5.30;0.60;;;6.50;99.90;;;;;;6128754;23;20080;-84
2022/01/22 09:42:41;;;;;;;8.43;1.10;;;6.50;99.90;;;;;;6129134;23;20018;-86
2022/01/22 09:45:08;;;;;;;10.25;0.60;;;6.50;99.90;;;;;;6154412;23;20052;-85
2022/01/22 09:47:35;;;;;;;7.60;0.93;;;6.50;99.90;;;;;;6128644;23;20072;-85
2022/01/22 09:50:03;;;;;;;10.57;0.95;;;6.50;99.90;;;;;;6154318;23;20013;-84
2022/01/22 09:52:28;;;;;;;5.00;0.60;;;6.60;99.90;;;;;;6129494;23;20343;-86
2022/01/22 09:54:54;;;;;;;6.43;0.90;;;6.60;99.90;;;;;;6128945;23;20014;-86
2022/01/22 09:57:20;;;;;;;10.27;0.90;;;6.60;99.90;;;;;;6129309;23;20025;-87
2022/01/22 09:59:46;;;;;;;8.13;0.82;;;6.60;99.90;;;;;;6129181;23;20048;-87
2022/01/22 10:02:14;;;;;;;8.57;1.00;;;6.60;99.90;;;;;;6155413;23;20022;-85
2022/01/22 10:04:41;;;;;;;8.93;0.80;;;6.70;99.90;;;;;;6128569;23;20506;-88
2022/01/22 10:07:18;;;;;;;6.75;0.70;;;6.70;99.90;;;;;;6155665;23;20021;-87
2022/01/22 10:10:02;;;;;;;4.55;0.90;;;6.70;99.90;;;;;;6129478;23;20097;-88
2022/01/22 10:12:30;;;;;;;5.82;0.70;;;6.70;99.90;;;;;;6129276;23;20022;-84
2022/01/22 10:15:09;;;;;;;8.18;0.80;;;6.70;99.90;;;;;;6128794;23;20024;-85
2022/01/22 10:17:45;;;;;;;8.38;0.95;;;6.70;99.90;;;;;;6104820;23;20018;-87
2022/01/22 10:20:28;;;;;;;6.88;0.70;;;6.70;99.90;;;;;;6104093;23;20044;-86
2022/01/22 10:23:04;;;;;;;6.60;1.10;;;6.70;99.90;;;;;;6155688;23;20049;-87
2022/01/22 10:25:44;;;;;;;9.02;1.00;;;6.80;99.90;;;;;;6127054;23;20041;-86
2022/01/22 10:28:23;;;;;;;6.13;1.30;;;6.80;99.90;;;;;;6129465;23;20025;-88
2022/01/22 10:30:56;;;;;;;10.77;1.02;;;6.70;99.90;;;;;;6129218;23;20029;-85
2022/01/22 10:33:32;;;;;;;5.75;1.60;;;6.70;99.90;;;;;;6129331;23;20023;-86
2022/01/22 10:36:20;;;;;;;5.38;0.60;;;6.80;99.90;;;;;;6129178;23;20101;-86
2022/01/22 10:38:53;;;;;;;6.47;1.02;;;6.80;99.90;;;;;;6129879;23;20021;-89
2022/01/22 10:41:39;;;;;;;6.57;1.13;;;6.80;99.90;;;;;;6131440;23;20021;-86
2022/01/22 10:44:15;;;;;;;7.03;1.10;;;6.80;99.90;;;;;;6131489;23;20013;-90
2022/01/22 10:46:46;;;;;;;8.05;1.10;;;6.80;99.90;;;;;;6131214;23;20378;-86
2022/01/22 10:49:19;;;;;;;9.07;1.00;;;6.80;99.90;;;;;;6106790;23;20092;-87
2022/01/22 10:51:51;;;;;;;6.60;1.17;;;6.80;99.90;;;;;;6131034;23;20056;-87
2022/01/22 10:54:22;;;;;;;6.85;1.08;;;6.80;99.90;;;;;;6131001;23;20018;-85
2022/01/22 10:56:49;;;;;;;7.45;1.20;;;6.80;99.90;;;;;;6106558;23;20021;-85
2022/01/22 10:59:17;;;;;;;10.70;1.38;;;6.80;99.90;;;;;;6130708;23;20470;-86
2022/01/22 11:01:53;;;;;;;7.07;1.10;;;6.80;99.90;;;;;;6130835;23;20017;-85
2022/01/22 11:04:24;;;;;;;11.13;1.40;;;6.80;99.90;;;;;;6155064;23;20103;-87
2022/01/22 11:06:58;;;;;;;12.85;1.70;;;6.80;99.90;;;;;;6106754;23;20398;-86
2022/01/22 11:09:26;;;;;;;8.35;1.80;;;6.90;99.90;;;;;;6106525;23;20072;-86
2022/01/22 11:11:53;;;;;;;12.13;1.58;;;6.80;99.90;;;;;;6130723;23;20013;-84
2022/01/22 11:14:19;;;;;;;;;;;6.80;99.90;;;;;;6130960;23;20058;-85
2022/01/22 11:16:49;;;;;;;8.70;1.30;;;6.80;99.90;;;;;;6156451;23;19917;-85
2022/01/22 11:19:19;;;;;;;7.60;1.52;;;6.80;99.90;;;;;;6130862;23;20343;-86
2022/01/22 11:21:49;;;;;;;7.30;1.08;;;6.80;99.90;;;;;;6155601;23;20370;-86
2022/01/22 11:24:18;;;;;;;9.48;1.48;;;6.80;99.90;;;;;;6130566;23;20018;-86
2022/01/22 11:26:48;;;;;;;7.28;1.25;;;6.80;99.90;;;;;;6128669;23;20021;-87
2022/01/22 11:29:18;;;;;;;10.63;1.27;;;6.80;99.90;;;;;;6130806;23;20021;-87
2022/01/22 11:31:50;;;;;;;12.82;1.60;;;6.80;99.90;;;;;;6130156;23;20013;-87
2022/01/22 11:34:19;;;;;;;11.90;1.50;;;6.80;99.90;;;;;;6131004;23;20022;-87
2022/01/22 11:37:00;;;;;;;15.70;2.13;;;6.80;99.90;;;;;;6130283;23;20056;-88
2022/01/22 11:39:28;;;;;;;10.77;2.33;;;6.80;99.90;;;;;;6105713;23;20096;-86
2022/01/22 11:42:11;;;;;;;12.02;1.88;;;6.80;99.90;;;;;;6106114;23;20424;-87
2022/01/22 11:44:48;;;;;;;8.45;1.23;;;6.90;99.90;;;;;;6129763;23;20100;-87
2022/01/22 11:47:16;;;;;;;13.23;1.80;;;6.90;99.90;;;;;;6130008;23;20018;-86
2022/01/22 11:50:08;;;;;;;10.57;1.90;;;6.90;99.90;;;;;;6130358;23;20774;-86
2022/01/22 11:52:40;;;;;;;13.50;1.95;;;6.90;99.90;;;;;;6130541;23;20013;-86
2022/01/22 11:55:11;;;;;;;13.52;1.85;;;6.90;99.90;;;;;;6129990;23;20021;-86
2022/01/22 11:58:03;;;;;;;11.88;1.90;;;6.90;99.90;;;;;;6130070;23;20022;-86
2022/01/22 12:00:29;;;;;;;13.82;1.95;;;6.90;99.90;;;;;;6129921;23;20013;-86
2022/01/22 12:03:22;;;;;;;16.13;2.50;;;6.90;99.90;;;;;;6130383;23;20028;-85
2022/01/22 12:05:53;;;;;;;9.07;2.42;;;6.90;99.90;;;;;;6102736;23;20334;-86
2022/01/22 12:08:22;;;;;;;11.68;2.00;;;6.90;99.90;;;;;;6105807;23;20147;-86
2022/01/22 12:16:17;;;;;;;10.48;2.50;;;6.90;99.90;;;;;;6156011;23;20027;-85
2022/01/22 12:18:58;;;;;;;15.45;2.45;;;6.90;99.90;;;;;;6156246;23;20021;-85
2022/01/22 12:21:38;;;;;;;12.82;2.85;;;7.00;99.90;;;;;;6130322;23;20017;-85
2022/01/22 12:24:10;;;;;;;14.15;2.95;;;6.90;99.90;;;;;;6130297;23;20032;-86
2022/01/22 12:26:48;;;;;;;10.95;2.60;;;7.00;99.90;;;;;;6130388;23;20018;-87
2022/01/22 12:29:35;;;;;;;17.83;3.58;;;7.00;99.90;;;;;;6130009;23;20022;-87
2022/01/22 12:32:06;;;;;;;15.82;3.60;;;7.00;99.90;;;;;;6130205;23;20088;-86
2022/01/22 12:34:53;;;;;;;20.63;3.97;;;7.00;99.90;;;;;;6130298;23;20021;-87
2022/01/22 12:37:26;;;;;;;19.65;4.22;;;7.00;99.90;;;;;;6156323;23;20018;-86
2022/01/22 12:39:55;;;;;;;16.02;4.18;;;7.00;99.90;;;;;;6129534;23;20068;-86
2022/01/22 12:42:35;;;;;;;18.85;4.05;;;7.00;99.90;;;;;;6129886;23;20017;-87
2022/01/22 12:45:08;;;;;;;17.48;4.13;;;6.90;99.90;;;;;;6105904;23;20347;-88
2022/01/22 12:47:37;;;;;;;17.13;3.95;;;6.90;99.90;;;;;;6129939;23;20068;-86
2022/01/22 12:50:08;;;;;;;17.98;4.18;;;7.00;99.90;;;;;;6129754;23;20449;-86
2022/01/22 12:52:34;;;;;;;17.33;4.28;;;6.90;99.90;;;;;;6105486;23;20014;-86
2022/01/22 12:55:13;;;;;;;15.52;3.92;;;6.90;99.90;;;;;;6156063;23;20021;-87
2022/01/22 12:57:42;;;;;;;14.45;3.80;;;6.90;99.90;;;;;;6129729;23;20017;-86
2022/01/22 13:00:13;;;;;;;17.75;4.50;;;6.90;99.90;;;;;;6129574;23;20029;-86
2022/01/22 13:02:41;;;;;;;16.30;4.65;;;6.90;99.90;;;;;;6129587;23;20029;-86
2022/01/22 13:05:10;;;;;;;17.05;4.47;;;6.90;99.90;;;;;;6128507;23;20029;-87
2022/01/22 13:07:45;;;;;;;20.95;4.88;;;6.90;99.90;;;;;;6155447;23;20017;-86
2022/01/22 13:10:11;;;;;;;15.45;4.90;;;6.90;99.90;;;;;;6129944;23;20473;-85
2022/01/22 13:12:46;;;;;;;19.57;5.00;;;6.90;99.90;;;;;;6155913;23;20049;-85
2022/01/22 13:15:16;;;;;;;19.17;5.43;;;6.90;99.90;;;;;;6103344;23;20281;-86
2022/01/22 13:17:51;;;;;;;18.83;5.45;;;6.90;99.90;;;;;;6129638;23;20332;-85
2022/01/22 13:20:22;;;;;;;20.50;4.88;;;6.90;99.90;;;;;;6155502;23;20022;-85
2022/01/22 13:22:49;;;;;;;16.33;4.70;;;6.90;99.90;;;;;;6129301;23;20021;-85
2022/01/22 13:25:16;;;;;;;14.93;4.93;;;6.90;99.90;;;;;;6155555;23;20016;-86
2022/01/22 13:27:42;;;;;;;;;;;6.90;99.90;;;;;;6130090;23;20017;-85
2022/01/22 13:30:11;;;;;;;14.45;3.70;;;6.90;99.90;;;;;;6104981;23;19916;-86
2022/01/22 13:32:50;;;;;;;25.10;13.85;;;6.90;99.90;;;;;;6128925;23;20025;-85
2022/01/22 13:49:30;;;;;;;11.27;2.72;;;6.90;99.90;;;;;;6155644;23;20475;-85
2022/01/22 13:52:18;;;;;;;53.00;34.72;;;6.90;99.90;;;;;;6129596;23;20025;-85
2022/01/22 13:54:46;;;;;;;25.42;14.85;;;6.90;99.90;;;;;;6129321;23;20021;-86
2022/01/22 13:57:15;;;;;;;17.60;6.90;;;6.90;99.90;;;;;;6105009;23;20459;-86
2022/01/22 14:00:02;;;;;;;12.90;4.80;;;6.90;99.90;;;;;;6129078;23;20041;-85
2022/01/22 14:02:49;;;;;;;24.42;12.52;;;6.90;99.90;;;;;;6105554;23;20021;-84
2022/01/22 14:05:14;;;;;;;27.10;8.30;;;6.90;99.90;;;;;;6155372;23;20032;-86
2022/01/22 14:07:48;;;;;;;17.03;5.43;;;6.90;99.90;;;;;;6155679;23;20021;-87
2022/01/22 14:10:21;;;;;;;17.95;5.40;;;6.90;99.90;;;;;;6129597;23;20026;-87
2022/01/22 14:13:14;;;;;;;14.98;3.42;;;6.80;99.90;;;;;;6129250;23;20021;-87
2022/01/22 14:15:43;;;;;;;20.55;7.00;;;6.80;99.90;;;;;;6155518;23;20087;-86
2022/01/22 14:20:44;;;;;;;14.25;3.40;;;6.80;99.90;;;;;;6155384;23;20033;-86
2022/01/22 14:23:17;;;;;;;26.15;9.00;;;6.80;99.90;;;;;;6154780;23;20072;-87
2022/01/22 14:26:05;;;;;;;19.40;6.00;;;6.80;99.90;;;;;;6129016;23;20096;-86
2022/01/22 14:28:44;;;;;;;44.97;25.67;;;6.70;99.90;;;;;;6129282;23;20024;-86
2022/01/22 14:31:27;;;;;;;110.40;62.85;;;6.70;99.90;;;;;;6129025;23;20299;-85
2022/01/22 14:33:55;;;;;;;53.00;28.95;;;6.70;99.90;;;;;;6152171;23;20068;-85
2022/01/22 14:36:24;;;;;;;27.48;11.05;;;6.70;99.90;;;;;;6153469;23;20502;-86
2022/01/22 14:38:56;;;;;;;50.45;26.75;;;6.70;99.90;;;;;;6129425;23;20036;-89
2022/01/22 14:44:26;;;;;;;99.07;42.92;;;6.70;99.90;;;;;;6154997;23;20024;-87
2022/01/22 14:46:57;;;;;;;48.42;27.95;;;6.60;99.90;;;;;;6128711;23;20026;-86
2022/01/22 14:49:26;;;;;;;30.30;12.63;;;6.60;99.90;;;;;;6153843;23;20025;-85
2022/01/22 14:51:52;;;;;;;41.42;23.00;;;6.60;99.90;;;;;;6128908;23;20022;-85
2022/01/22 14:54:20;;;;;;;38.33;19.47;;;6.50;99.90;;;;;;6155348;23;20086;-86
2022/01/22 14:56:46;;;;;;;44.47;27.35;;;6.60;99.90;;;;;;6129246;23;20022;-84
2022/01/22 14:59:12;;;;;;;27.67;18.07;;;6.60;99.90;;;;;;6129138;23;20022;-84
2022/01/22 15:01:38;;;;;;;24.60;13.80;;;6.60;99.90;;;;;;6128854;23;20018;-85
2022/01/22 15:04:04;;;;;;;14.52;9.15;;;6.60;99.90;;;;;;6155037;23;20092;-86
2022/01/22 15:06:30;;;;;;;21.90;11.67;;;6.60;99.90;;;;;;6129153;23;20328;-86
2022/01/22 15:08:56;;;;;;;5.50;2.20;;;6.60;99.90;;;;;;6129083;23;20026;-84
2022/01/22 15:11:21;;;;;;;14.23;2.07;;;6.50;99.90;;;;;;6128253;23;20308;-84
2022/01/22 15:13:47;;;;;;;8.50;1.73;;;6.60;99.90;;;;;;6155181;23;20024;-85
2022/01/22 15:16:17;;;;;;;13.80;4.70;;;6.50;99.90;;;;;;6155137;23;20060;-86
2022/01/22 15:21:10;;;;;;;11.88;2.80;;;6.50;99.90;;;;;;6128054;23;20459;-85
2022/01/22 15:23:36;;;;;;;20.50;6.78;;;6.50;99.90;;;;;;6128866;23;20022;-85
2022/01/22 15:26:02;;;;;;;11.67;2.80;;;6.50;99.90;;;;;;6129682;23;20013;-85
2022/01/22 15:28:44;;;;;;;10.68;2.42;;;6.60;99.90;;;;;;6156987;23;20100;-84
2022/01/22 15:31:28;;;;;;;20.98;8.25;;;6.50;99.90;;;;;;6130250;23;20053;-86
2022/01/22 15:34:08;;;;;;;39.20;22.05;;;6.60;99.90;;;;;;6130441;23;20014;-86
2022/01/22 15:36:34;;;;;;;11.90;2.78;;;6.50;99.90;;;;;;6130629;23;20018;-85
2022/01/22 15:39:02;;;;;;;25.63;13.55;;;6.50;99.90;;;;;;6130479;23;20100;-85
2022/01/22 15:41:28;;;;;;;22.17;11.55;;;6.50;99.90;;;;;;6156303;23;20028;-85
2022/01/22 15:43:54;;;;;;;21.23;8.87;;;6.50;99.90;;;;;;6130804;23;20021;-84
2022/01/22 15:46:19;;;;;;;25.70;14.27;;;6.50;99.90;;;;;;6130149;23;20022;-84